Time;durP1;ratioP1;P1;durP2;ratioP2;P2;SDS_P1;SDS_P2;PMS_P1;PMS_P2;Temp;Humidity;BMP_temperature;BMP_pressure;BME280_temperature;BME280_humidity;BME280_pressure;Samples;Min_cycle;Max_cycle;Signal;HPM_P1;HPM_P2
2022/09/25 00:00:36;;;;;;;5.40;3.37;;;;;;;4.55;100.00;99357.05;1737818;82;20976;-72
2022/09/25 00:03:03;;;;;;;5.45;3.50;;;;;;;4.55;100.00;99364.66;1740301;81;21772;-72
2022/09/25 00:05:29;;;;;;;6.30;3.45;;;;;;;4.55;100.00;99364.66;1751800;81;20923;-72
2022/09/25 00:07:56;;;;;;;11.25;4.05;;;;;;;4.59;100.00;99372.52;1733520;81;20957;-71
2022/09/25 00:10:24;;;;;;;4.90;3.52;;;;;;;4.61;100.00;99371.69;1726323;82;20942;-71
2022/09/25 00:12:51;;;;;;;5.10;3.65;;;;;;;4.61;100.00;99368.97;1731502;81;21033;-71
2022/09/25 00:15:18;;;;;;;5.72;3.77;;;;;;;4.63;100.00;99371.38;1718197;82;21208;-71
2022/09/25 00:17:45;;;;;;;6.05;3.80;;;;;;;4.61;100.00;99370.33;1715238;82;21085;-71
2022/09/25 00:20:12;;;;;;;4.55;3.22;;;;;;;4.60;100.00;99363.27;1713562;82;21366;-71
2022/09/25 00:22:43;;;;;;;5.37;3.42;;;;;;;4.58;100.00;99361.37;1713373;83;21062;-71
2022/09/25 00:25:14;;;;;;;6.35;3.17;;;;;;;4.54;100.00;99362.22;1729745;81;21472;-69
2022/09/25 00:27:42;;;;;;;5.20;3.72;;;;;;;4.48;100.00;99355.18;1727346;82;21244;-69
2022/09/25 00:30:11;;;;;;;8.23;3.62;;;;;;;4.47;100.00;99358.44;1738103;81;21055;-70
2022/09/25 00:32:38;;;;;;;6.33;4.45;;;;;;;4.46;100.00;99361.44;1715281;83;21094;-72
2022/09/25 00:35:06;;;;;;;6.92;4.33;;;;;;;4.45;100.00;99365.25;1717073;83;20936;-72
2022/09/25 00:37:35;;;;;;;6.65;4.00;;;;;;;4.43;100.00;99358.73;1684161;83;20910;-71
2022/09/25 00:40:04;;;;;;;7.58;3.60;;;;;;;4.43;100.00;99358.73;1720399;83;21162;-71
2022/09/25 00:42:31;;;;;;;6.85;3.92;;;;;;;4.41;100.00;99356.03;1744198;82;21478;-71
2022/09/25 00:45:04;;;;;;;9.93;3.92;;;;;;;4.36;100.00;99354.70;1742019;82;21506;-72
2022/09/25 00:47:48;;;;;;;7.62;3.72;;;;;;;4.30;100.00;99352.00;1724881;82;21015;-72
2022/09/25 00:50:33;;;;;;;8.85;4.60;;;;;;;4.28;100.00;99347.94;1714705;82;20962;-72
2022/09/25 00:53:07;;;;;;;8.23;3.77;;;;;;;4.25;100.00;99352.02;1731774;82;21158;-71
2022/09/25 00:55:36;;;;;;;5.78;3.90;;;;;;;4.21;100.00;99349.59;1736927;81;21636;-71
2022/09/25 00:58:02;;;;;;;5.62;3.98;;;;;;;4.15;100.00;99353.42;1724421;82;21036;-71
2022/09/25 01:00:29;;;;;;;9.03;4.40;;;;;;;4.13;100.00;99352.08;1728041;81;21450;-72
2022/09/25 01:02:56;;;;;;;7.83;4.33;;;;;;;4.13;100.00;99358.87;1727447;82;21135;-72
2022/09/25 01:05:27;;;;;;;7.53;4.30;;;;;;;4.14;100.00;99350.98;1711897;81;21094;-72
2022/09/25 01:07:56;;;;;;;8.38;4.42;;;;;;;4.15;100.00;99354.78;1717502;83;20989;-71
2022/09/25 01:10:23;;;;;;;5.37;3.98;;;;;;;4.18;100.00;99354.77;1723918;81;21080;-71
2022/09/25 01:12:50;;;;;;;7.05;4.47;;;;;;;4.17;100.00;99357.22;1737285;81;21014;-72
2022/09/25 01:15:19;;;;;;;6.17;4.55;;;;;;;4.19;100.00;99356.40;1696073;81;21019;-70
2022/09/25 01:18:09;;;;;;;8.10;4.30;;;;;;;4.20;100.00;99356.13;1739916;82;21119;-71
2022/09/25 01:21:04;;;;;;;12.65;4.90;;;;;;;4.18;100.00;99355.59;1712585;82;21753;-72
2022/09/25 01:23:39;;;;;;;6.92;4.72;;;;;;;4.18;100.00;99355.59;1730763;81;21021;-73
2022/09/25 01:26:44;;;;;;;7.90;4.45;;;;;;;4.21;100.00;99359.11;1697803;82;21065;-73
2022/09/25 01:29:27;;;;;;;7.70;4.20;;;;;;;4.18;100.00;99362.92;1734579;80;21210;-74
2022/09/25 01:32:03;;;;;;;;;;;;;;;4.17;100.00;99364.02;1705349;82;21787;-73
2022/09/25 01:34:44;;;;;;;7.03;4.30;;;;;;;4.14;100.00;99368.64;1735068;81;20141;-73
2022/09/25 01:37:21;;;;;;;7.25;4.92;;;;;;;4.09;100.00;99359.16;1734262;81;21061;-73
2022/09/25 01:40:02;;;;;;;7.25;4.55;;;;;;;4.03;100.00;99365.18;1733631;81;21495;-73
2022/09/25 01:42:48;;;;;;;6.92;4.72;;;;;;;4.00;100.00;99363.56;1739222;82;20983;-72
2022/09/25 01:45:31;;;;;;;9.28;4.62;;;;;;;4.00;100.00;99363.56;1708217;83;22181;-72
2022/09/25 01:47:58;;;;;;;7.50;4.87;;;;;;;3.99;100.00;99354.60;1706141;82;21102;-72
2022/09/25 01:50:43;;;;;;;8.28;4.35;;;;;;;3.94;100.00;99356.80;1731697;81;21014;-73
2022/09/25 01:53:14;;;;;;;8.20;4.90;;;;;;;3.89;100.00;99355.45;1723057;81;21048;-73
2022/09/25 01:55:48;;;;;;;9.35;5.05;;;;;;;3.90;100.00;99358.44;1737246;82;21087;-73
2022/09/25 01:58:28;;;;;;;8.00;4.97;;;;;;;3.93;100.00;99365.22;1708927;82;21123;-70
2022/09/25 02:01:00;;;;;;;6.55;4.53;;;;;;;3.94;100.00;99358.15;1672070;84;21101;-70
2022/09/25 02:03:44;;;;;;;14.53;4.62;;;;;;;3.91;100.00;99362.77;1707935;83;21457;-70
2022/09/25 02:06:15;;;;;;;11.88;5.70;;;;;;;3.86;100.00;99363.33;1694136;82;21024;-73
2022/09/25 02:08:51;;;;;;;14.15;5.50;;;;;;;3.81;100.00;99353.84;1716809;82;21127;-72
2022/09/25 02:11:18;;;;;;;17.82;5.35;;;;;;;3.88;100.00;99356.54;1722116;82;21422;-72
2022/09/25 02:13:49;;;;;;;8.58;5.50;;;;;;;3.88;100.00;99356.54;1712948;83;22268;-72
2022/09/25 02:16:24;;;;;;;8.30;5.00;;;;;;;3.89;100.00;99359.52;1729051;81;21031;-72
2022/09/25 02:21:50;;;;;;;7.70;4.85;;;;;;;3.87;100.00;99361.70;1702837;83;21014;-72
2022/09/25 02:24:42;;;;;;;7.30;4.80;;;;;;;3.88;100.00;99361.16;1694769;83;25334;-73
2022/09/25 02:27:09;;;;;;;12.80;4.65;;;;;;;3.86;100.00;99361.98;1682310;82;21621;-72
2022/09/25 02:29:36;;;;;;;9.53;5.92;;;;;;;3.82;100.00;99359.54;1727655;81;21523;-72
2022/09/25 02:32:07;;;;;;;12.35;5.40;;;;;;;3.75;100.00;99357.66;1738328;82;21032;-73
2022/09/25 02:34:34;;;;;;;11.45;4.90;;;;;;;3.70;100.00;99358.48;1719055;82;20958;-73
2022/09/25 02:37:00;;;;;;;9.30;5.17;;;;;;;3.71;100.00;99368.80;1671407;84;21764;-72
2022/09/25 02:39:29;;;;;;;14.60;6.58;;;;;;;3.71;100.00;99368.80;1745478;82;21636;-71
2022/09/25 02:42:10;;;;;;;21.42;8.10;;;;;;;3.70;100.00;99367.98;1713808;83;20999;-70
2022/09/25 02:45:10;;;;;;;12.45;6.62;;;;;;;3.70;100.00;99364.45;1734141;82;21127;-70
2022/09/25 02:48:04;;;;;;;14.38;7.35;;;;;;;3.67;100.00;99366.36;1731352;82;20848;-70
2022/09/25 02:50:52;;;;;;;10.68;5.90;;;;;;;3.61;100.00;99366.91;1725571;81;21485;-70
2022/09/25 02:53:46;;;;;;;16.42;5.97;;;;;;;3.54;100.00;99369.09;1719119;82;21514;-71
2022/09/25 02:56:35;;;;;;;11.00;5.10;;;;;;;3.54;100.00;99371.27;1720722;81;20986;-72
2022/09/25 02:59:12;;;;;;;8.10;5.15;;;;;;;3.53;100.00;99367.47;1716434;81;21002;-72
2022/09/25 03:01:40;;;;;;;10.18;4.72;;;;;;;3.54;100.00;99369.91;1739869;81;21020;-71
2022/09/25 03:04:07;;;;;;;9.05;5.15;;;;;;;3.55;100.00;99370.18;1705236;83;21267;-72
2022/09/25 03:06:33;;;;;;;7.90;5.05;;;;;;;3.54;100.00;99372.62;1738791;81;21042;-72
2022/09/25 03:09:00;;;;;;;7.70;5.08;;;;;;;3.56;100.00;99369.64;1715969;82;20978;-72
2022/09/25 03:11:26;;;;;;;9.38;5.45;;;;;;;3.57;100.00;99375.34;1727161;81;21096;-72
2022/09/25 03:14:01;;;;;;;9.60;4.95;;;;;;;3.60;100.00;99373.43;1734298;82;21087;-71
2022/09/25 03:16:51;;;;;;;10.65;5.20;;;;;;;3.62;100.00;99371.26;1713322;83;21166;-71
2022/09/25 03:19:22;;;;;;;8.38;5.35;;;;;;;3.67;100.00;99376.68;1725687;81;21053;-70
2022/09/25 03:21:46;;;;;;;8.25;5.15;;;;;;;3.71;100.00;99379.66;1732715;82;21112;-70
2022/09/25 03:24:13;;;;;;;9.08;5.95;;;;;;;3.72;100.00;99380.73;1721493;81;20998;-70
2022/09/25 03:26:41;;;;;;;8.68;5.28;;;;;;;3.73;100.00;99378.30;1725365;81;21088;-70
2022/09/25 03:29:07;;;;;;;6.47;4.85;;;;;;;3.72;100.00;99378.03;1675091;84;21138;-70
2022/09/25 03:31:34;;;;;;;7.65;4.60;;;;;;;3.70;100.00;99378.84;1670740;84;21129;-70
2022/09/25 03:34:00;;;;;;;7.87;5.40;;;;;;;3.70;100.00;99378.84;1686365;84;21111;-70
2022/09/25 03:36:29;;;;;;;14.05;6.40;;;;;;;3.72;100.00;99388.08;1663888;84;21150;-70
2022/09/25 03:38:57;;;;;;;10.03;6.30;;;;;;;3.73;100.00;99391.87;1684661;84;20905;-70
2022/09/25 03:41:30;;;;;;;7.42;5.58;;;;;;;3.74;100.00;99391.33;1701184;83;21130;-70
2022/09/25 03:43:57;;;;;;;10.63;6.08;;;;;;;3.78;100.00;99397.30;1743158;81;20947;-70
2022/09/25 03:46:26;;;;;;;9.68;5.83;;;;;;;3.82;100.00;99397.56;1732186;81;21439;-70
2022/09/25 03:48:53;;;;;;;10.48;6.25;;;;;;;3.85;100.00;99399.18;1701394;83;20962;-70
2022/09/25 03:51:20;;;;;;;10.43;6.05;;;;;;;3.87;100.00;99394.28;1712193;83;20914;-70
2022/09/25 03:53:47;;;;;;;13.65;6.30;;;;;;;3.92;100.00;99394.82;1740609;81;21123;-70
2022/09/25 03:56:17;;;;;;;8.85;6.03;;;;;;;3.94;100.00;99403.50;1742211;82;20888;-70
2022/09/25 03:58:44;;;;;;;9.88;6.87;;;;;;;3.95;100.00;99397.80;1741960;82;20931;-70
2022/09/25 04:01:10;;;;;;;10.15;6.37;;;;;;;3.97;100.00;99401.05;1715065;82;20989;-70
2022/09/25 04:03:38;;;;;;;9.63;5.53;;;;;;;4.00;100.00;99397.52;1714761;83;21041;-70
2022/09/25 04:06:07;;;;;;;15.93;6.15;;;;;;;4.02;100.00;99394.80;1700710;82;21574;-70
2022/09/25 04:08:35;;;;;;;12.60;6.65;;;;;;;4.03;100.00;99392.89;1725077;81;21163;-71
2022/09/25 04:11:01;;;;;;;11.95;6.45;;;;;;;4.04;100.00;99389.90;1737215;82;21483;-71
2022/09/25 04:13:31;;;;;;;10.82;6.58;;;;;;;4.09;100.00;99389.03;1712576;82;21033;-71
2022/09/25 04:15:59;;;;;;;8.88;6.20;;;;;;;4.10;100.00;99390.66;1724658;82;21100;-70
2022/09/25 04:18:31;;;;;;;17.20;6.80;;;;;;;4.13;100.00;99388.75;1719255;81;21120;-71
2022/09/25 04:21:05;;;;;;;9.30;6.10;;;;;;;4.16;100.00;99392.27;1717622;81;21008;-69
2022/09/25 04:23:36;;;;;;;8.98;5.42;;;;;;;4.20;100.00;99389.27;1724845;81;21034;-69
2022/09/25 04:26:10;;;;;;;11.68;6.95;;;;;;;4.22;100.00;99386.55;1703307;83;21558;-69
2022/09/25 04:28:44;;;;;;;9.00;5.75;;;;;;;4.24;100.00;99386.27;1697351;82;20986;-70
2022/09/25 04:31:13;;;;;;;7.72;5.47;;;;;;;4.23;100.00;99386.81;1711223;83;25324;-70
2022/09/25 04:33:47;;;;;;;8.95;5.85;;;;;;;4.29;100.00;99382.17;1737054;81;21011;-70
2022/09/25 04:36:19;;;;;;;9.88;6.17;;;;;;;4.31;100.00;99382.16;1723238;82;21515;-69
2022/09/25 04:38:48;;;;;;;8.90;6.35;;;;;;;4.33;100.00;99379.71;1727978;81;21011;-69
2022/09/25 04:41:22;;;;;;;10.98;6.47;;;;;;;4.34;100.00;99386.23;1715887;81;21082;-68
2022/09/25 04:43:52;;;;;;;8.50;6.25;;;;;;;4.39;100.00;99387.56;1724639;81;21144;-68
2022/09/25 04:46:24;;;;;;;12.00;6.40;;;;;;;4.49;100.00;99382.63;1725718;81;20939;-68
2022/09/25 04:48:51;;;;;;;10.48;6.47;;;;;;;4.55;100.00;99389.13;1729652;81;21031;-68
2022/09/25 04:51:17;;;;;;;11.12;6.35;;;;;;;4.62;100.00;99396.39;1720598;81;21220;-68
2022/09/25 04:53:47;;;;;;;9.10;6.20;;;;;;;4.62;100.00;99396.39;1735648;81;21126;-68
2022/09/25 04:56:20;;;;;;;10.58;6.53;;;;;;;4.69;100.00;99393.37;1725387;80;21254;-68
2022/09/25 04:58:58;;;;;;;10.88;5.92;;;;;;;4.85;100.00;99403.06;1711554;83;20981;-69
2022/09/25 05:01:21;;;;;;;11.93;6.70;;;;;;;4.85;100.00;99403.06;1687025;84;21057;-68
2022/09/25 05:03:58;;;;;;;10.72;7.00;;;;;;;4.90;100.00;99398.95;1688199;84;21551;-70
2022/09/25 05:06:28;;;;;;;9.70;5.97;;;;;;;4.98;100.00;99398.91;1691983;84;21053;-70
2022/09/25 05:09:02;;;;;;;9.55;5.80;;;;;;;5.07;100.00;99398.57;1740897;81;21448;-70
2022/09/25 05:11:31;;;;;;;8.45;5.67;;;;;;;5.13;100.00;99400.70;1740475;81;21633;-70
2022/09/25 05:14:12;;;;;;;11.08;7.55;;;;;;;5.20;100.00;99398.48;1727442;81;24759;-71
2022/09/25 05:16:33;;;;;;;9.65;6.08;;;;;;;5.26;100.00;99392.69;1718502;81;21457;-71
2022/09/25 05:19:09;;;;;;;11.30;6.10;;;;;;;5.38;100.00;99395.59;1742095;82;21463;-71
2022/09/25 05:21:39;;;;;;;11.88;6.72;;;;;;;5.48;100.00;99396.86;1736555;82;21503;-72
2022/09/25 05:24:12;;;;;;;;;;;;;;;5.57;100.00;99391.06;1741006;82;21579;-71
2022/09/25 05:26:40;;;;;;;13.65;6.35;;;;;;;5.68;100.00;99392.59;1733364;81;20147;-70
2022/09/25 05:29:11;;;;;;;11.65;5.60;;;;;;;5.79;100.00;99397.36;1735830;80;21012;-70
2022/09/25 05:31:45;;;;;;;9.65;5.55;;;;;;;5.89;100.00;99392.66;1739672;81;20924;-70
2022/09/25 05:34:09;;;;;;;;;;;;;;;6.03;100.00;99398.23;1710857;83;21203;-74
2022/09/25 05:36:40;;;;;;;12.82;6.03;;;;;;;6.17;100.00;99394.27;1709453;83;20146;-73
2022/09/25 05:39:11;;;;;;;7.90;5.28;;;;;;;6.26;100.00;99397.43;1713246;83;20900;-80
2022/09/25 05:41:37;;;;;;;9.85;5.67;;;;;;;6.39;100.00;99399.97;1713152;81;21050;-82
2022/09/25 05:44:10;;;;;;;11.15;5.75;;;;;;;6.51;100.00;99405.82;1702696;81;21511;-89
2022/09/25 05:46:39;;;;;;;8.45;5.60;;;;;;;6.59;100.00;99401.08;1694745;82;20979;-74
2022/09/25 05:49:06;;;;;;;5.78;4.00;;;;;;;6.70;100.00;99395.49;1712758;81;20944;-74
2022/09/25 05:51:42;;;;;;;6.83;4.58;;;;;;;6.81;100.00;99405.97;1711853;81;20975;-74
2022/09/25 05:54:10;;;;;;;9.30;4.33;;;;;;;7.03;100.00;99401.81;1719945;81;21051;-75
2022/09/25 05:56:46;;;;;;;6.70;4.20;;;;;;;7.27;100.00;99400.63;1708099;81;21511;-75
2022/09/25 05:59:19;;;;;;;6.85;4.10;;;;;;;7.57;100.00;99403.38;1705965;82;21026;-72
2022/09/25 06:01:48;;;;;;;7.60;4.45;;;;;;;7.74;100.00;99402.82;1712813;82;20983;-75
2022/09/25 06:04:17;;;;;;;6.85;4.50;;;;;;;7.91;100.00;99404.42;1711491;82;20995;-89
2022/09/25 06:06:48;;;;;;;8.58;4.40;;;;;;;8.11;100.00;99408.67;1736125;80;20993;-76
2022/09/25 06:09:17;;;;;;;7.45;4.45;;;;;;;8.25;100.00;99405.95;1749890;80;20895;-87
2022/09/25 06:11:50;;;;;;;5.72;4.12;;;;;;;8.42;100.00;99408.92;1762123;80;21275;-77
2022/09/25 06:14:13;;;;;;;6.70;3.83;;;;;;;8.54;100.00;99404.30;1760865;80;20951;-77
2022/09/25 06:16:40;;;;;;;8.45;3.95;;;;;;;8.65;100.00;99409.81;1743954;80;20998;-78
2022/09/25 06:19:07;;;;;;;5.22;3.98;;;;;;;8.81;100.00;99410.27;1726204;80;21018;-73
2022/09/25 06:21:34;;;;;;;5.78;3.58;;;;;;;8.92;100.00;99417.14;1747331;80;20955;-74
2022/09/25 06:24:01;;;;;;;6.80;3.87;;;;;;;9.05;100.00;99419.59;1724348;80;21247;-72
2022/09/25 06:26:27;;;;;;;5.67;3.77;;;;;;;9.12;100.00;99419.42;1749508;80;21587;-73
2022/09/25 06:28:58;;;;;;;5.78;3.85;;;;;;;9.18;100.00;99418.75;1755115;80;21496;-72
2022/09/25 06:31:24;;;;;;;10.78;3.72;;;;;;;9.20;100.00;99417.31;1750226;80;20969;-72
2022/09/25 06:33:51;;;;;;;4.95;3.50;;;;;;;9.27;100.00;99420.41;1753562;80;21066;-73
2022/09/25 06:36:17;;;;;;;5.70;3.77;;;;;;;9.36;100.00;99424.59;1742976;80;21085;-74
2022/09/25 06:38:44;;;;;;;5.42;3.40;;;;;;;9.44;100.00;99417.55;1758739;80;20966;-73
2022/09/25 06:41:11;;;;;;;5.45;3.52;;;;;;;9.54;100.00;99426.34;1756236;80;21087;-76
2022/09/25 06:43:37;;;;;;;5.25;2.80;;;;;;;9.67;100.00;99420.55;1764074;80;20944;-75
2022/09/25 06:46:04;;;;;;;7.00;2.90;;;;;;;9.78;100.00;99421.91;1762833;80;21001;-77
2022/09/25 06:48:31;;;;;;;6.05;3.33;;;;;;;9.87;100.00;99409.03;1757318;80;21768;-76
2022/09/25 06:50:59;;;;;;;5.53;3.45;;;;;;;9.97;100.00;99420.30;1703076;82;20946;-78
2022/09/25 06:53:27;;;;;;;5.40;3.30;;;;;;;10.03;100.00;99410.81;1744361;81;20927;-74
2022/09/25 06:55:56;;;;;;;8.98;3.20;;;;;;;10.15;100.00;99419.82;1744311;81;20987;-74
2022/09/25 06:58:24;;;;;;;6.47;2.80;;;;;;;10.30;100.00;99412.58;1701137;84;21029;-72
2022/09/25 07:00:53;;;;;;;5.97;3.00;;;;;;;10.45;100.00;99412.69;1679205;84;21164;-76
2022/09/25 07:06:09;;;;;;;5.50;2.75;;;;;;;10.76;100.00;99391.45;1744565;81;20983;-70
2022/09/25 07:08:36;;;;;;;4.97;2.35;;;;;;;10.93;100.00;99393.98;1713238;82;21047;-72
2022/09/25 07:11:07;;;;;;;5.12;2.50;;;;;;;11.07;100.00;99398.17;1744389;82;22085;-73
2022/09/25 07:13:39;;;;;;;3.80;2.60;;;;;;;11.20;100.00;99399.95;1743394;81;21265;-73
2022/09/25 07:16:12;;;;;;;3.95;2.65;;;;;;;11.47;100.00;99396.63;1679698;84;20890;-72
2022/09/25 07:18:41;;;;;;;3.63;2.57;;;;;;;11.87;100.00;99393.89;1701670;84;21017;-76
2022/09/25 07:21:16;;;;;;;3.58;2.10;;;;;;;12.34;98.33;99388.36;1701172;84;21046;-73
2022/09/25 07:23:49;;;;;;;4.35;2.58;;;;;;;12.83;92.63;99390.09;1700985;81;21097;-78
2022/09/25 07:26:22;;;;;;;3.05;2.22;;;;;;;13.23;89.21;99393.80;1701284;82;21777;-76
2022/09/25 07:29:00;;;;;;;3.08;1.75;;;;;;;13.65;85.60;99393.16;1674744;83;21020;-82
2022/09/25 07:31:33;;;;;;;3.52;1.62;;;;;;;14.03;78.11;99392.31;1723948;82;20942;-74
2022/09/25 07:34:11;;;;;;;2.52;1.98;;;;;;;14.28;77.82;99390.40;1751457;80;21098;-75
2022/09/25 07:36:41;;;;;;;6.47;1.62;;;;;;;14.53;77.04;99392.02;1754324;80;21002;-74
2022/09/25 07:39:11;;;;;;;2.83;1.98;;;;;;;14.86;75.42;99393.84;1765357;80;21847;-74
2022/09/25 07:41:42;;;;;;;3.58;1.65;;;;;;;15.13;72.99;99391.69;1745971;80;21566;-75
2022/09/25 07:44:10;;;;;;;2.15;1.55;;;;;;;15.43;71.62;99383.87;1745147;80;21029;-72
2022/09/25 07:46:42;;;;;;;2.70;1.75;;;;;;;15.73;70.90;99386.28;1759340;81;20922;-76
2022/09/25 07:49:16;;;;;;;2.27;1.52;;;;;;;15.99;70.21;99383.03;1724411;82;21593;-79
2022/09/25 07:51:46;;;;;;;2.55;1.80;;;;;;;16.21;64.79;99381.59;1729470;81;21021;-78
2022/09/25 07:54:16;;;;;;;2.80;1.60;;;;;;;16.23;66.53;99380.66;1726651;81;20891;-74
2022/09/25 07:56:43;;;;;;;1.87;1.50;;;;;;;16.37;65.47;99387.36;1756806;80;21526;-73
2022/09/25 07:59:17;;;;;;;2.27;1.60;;;;;;;16.53;60.81;99381.00;1736485;80;21581;-73
2022/09/25 08:01:47;;;;;;;2.20;1.70;;;;;;;16.44;59.81;99384.77;1752770;80;21080;-73
2022/09/25 08:04:13;;;;;;;3.35;1.85;;;;;;;16.42;63.05;99377.97;1752438;81;21092;-73
2022/09/25 08:06:41;;;;;;;3.27;1.55;;;;;;;16.63;64.20;99385.42;1753573;80;20903;-73
2022/09/25 08:09:11;;;;;;;2.87;1.90;;;;;;;16.81;60.05;99376.14;1748090;80;21731;-72
2022/09/25 08:11:41;;;;;;;3.80;1.80;;;;;;;16.81;59.16;99372.78;1710487;82;21466;-91
2022/09/25 08:14:09;;;;;;;2.55;1.87;;;;;;;16.81;58.19;99380.30;1709808;82;20896;-89
2022/09/25 08:16:37;;;;;;;2.58;1.80;;;;;;;16.74;59.16;99382.93;1720165;81;21093;-87
2022/09/25 08:19:03;;;;;;;2.25;1.52;;;;;;;16.83;59.76;99384.89;1716077;82;21133;-89
2022/09/25 08:21:30;;;;;;;1.98;1.67;;;;;;;17.08;58.08;99389.03;1712800;82;21014;-81
2022/09/25 08:23:56;;;;;;;2.80;1.62;;;;;;;17.24;57.22;99379.86;1709929;82;21442;-76
2022/09/25 08:26:23;;;;;;;1.42;1.27;;;;;;;17.35;57.61;99382.24;1720507;81;20950;-75
2022/09/25 08:28:50;;;;;;;2.45;1.70;;;;;;;17.38;56.07;99379.55;1703195;84;21206;-80
2022/09/25 08:31:18;;;;;;;4.85;1.87;;;;;;;17.32;54.28;99378.84;1708620;81;20982;-75
2022/09/25 08:33:46;;;;;;;3.67;1.40;;;;;;;17.25;54.35;99374.53;1718640;82;21043;-77
2022/09/25 08:36:13;;;;;;;2.55;1.22;;;;;;;17.21;54.00;99376.42;1730092;81;21018;-80
2022/09/25 08:38:40;;;;;;;1.77;1.10;;;;;;;17.16;53.74;99371.38;1727607;82;21481;-77
2022/09/25 08:41:15;;;;;;;3.10;1.37;;;;;;;17.12;52.86;99366.92;1707209;82;21119;-77
2022/09/25 08:44:03;;;;;;;2.35;1.15;;;;;;;17.23;54.52;99373.51;1740448;82;21513;-75
2022/09/25 08:50:03;;;;;;;2.00;1.10;;;;;;;17.46;53.79;99367.42;1713243;82;20940;-71
2022/09/25 08:52:30;;;;;;;1.90;1.20;;;;;;;17.77;50.59;99365.67;1718037;82;20974;-71
2022/09/25 08:54:57;;;;;;;1.37;1.20;;;;;;;18.00;51.64;99361.50;1713802;83;21120;-70
2022/09/25 08:57:35;;;;;;;2.55;1.30;;;;;;;18.09;51.70;99361.48;1717040;82;20972;-71
2022/09/25 09:00:10;;;;;;;2.05;1.10;;;;;;;18.12;51.42;99358.55;1714893;81;21082;-69
2022/09/25 09:02:45;;;;;;;2.37;1.22;;;;;;;17.96;48.44;99352.30;1693253;82;21056;-71
2022/09/25 09:05:36;;;;;;;1.87;1.40;;;;;;;17.86;50.67;99352.36;1676582;84;21114;-71
2022/09/25 09:08:11;;;;;;;2.30;1.30;;;;;;;17.75;50.55;99349.97;1715519;82;21228;-71
2022/09/25 09:11:01;;;;;;;4.30;1.30;;;;;;;17.63;52.37;99355.66;1721968;82;20999;-71
2022/09/25 09:13:39;;;;;;;1.92;1.37;;;;;;;17.69;53.23;99350.85;1697152;83;20957;-72
2022/09/25 09:16:34;;;;;;;1.87;1.22;;;;;;;17.97;51.61;99342.80;1699389;82;21095;-73
2022/09/25 09:19:04;;;;;;;1.77;1.20;;;;;;;18.24;50.56;99356.17;1696332;83;21012;-70
2022/09/25 09:21:54;;;;;;;5.17;1.50;;;;;;;18.54;50.46;99343.72;1697269;83;21902;-72
2022/09/25 09:24:29;;;;;;;4.45;1.47;;;;;;;18.73;49.36;99346.43;1703568;82;21000;-71
2022/09/25 09:27:30;;;;;;;4.92;1.55;;;;;;;18.89;50.09;99345.67;1729916;81;21090;-71
2022/09/25 09:30:15;;;;;;;2.62;1.30;;;;;;;19.12;49.23;99337.21;1720947;81;21098;-70
2022/09/25 09:33:00;;;;;;;2.12;1.32;;;;;;;19.07;47.70;99348.08;1721138;82;21019;-71
2022/09/25 09:35:53;;;;;;;5.40;1.50;;;;;;;18.78;48.69;99340.55;1711422;80;21120;-71
2022/09/25 09:38:27;;;;;;;2.60;1.80;;;;;;;18.73;48.53;99340.28;1700848;82;20936;-70
2022/09/25 09:41:11;;;;;;;1.95;1.75;;;;;;;18.87;48.50;99334.12;1717160;82;21090;-70
2022/09/25 09:43:50;;;;;;;2.67;1.45;;;;;;;18.82;47.02;99340.59;1717851;82;20971;-75
2022/09/25 09:47:11;;;;;;;2.12;1.30;;;;;;;18.38;49.14;99341.92;1724131;81;21000;-70
2022/09/25 09:49:57;;;;;;;2.42;1.42;;;;;;;18.05;48.82;99342.55;1721928;82;21533;-71
2022/09/25 09:52:42;;;;;;;2.90;1.50;;;;;;;17.81;50.75;99343.75;1711282;82;21499;-72
2022/09/25 09:55:47;;;;;;;2.25;1.47;;;;;;;17.84;51.25;99335.84;1716640;82;21590;-80
2022/09/25 09:58:31;;;;;;;4.87;1.92;;;;;;;17.97;50.70;99337.25;1711069;82;21051;-71
2022/09/25 10:01:03;;;;;;;2.30;1.25;;;;;;;17.97;50.72;99340.02;1687536;82;21178;-77
2022/09/25 10:03:39;;;;;;;4.50;1.40;;;;;;;18.06;51.33;99340.58;1721038;80;21057;-71
2022/09/25 10:06:12;;;;;;;3.20;1.60;;;;;;;18.24;50.77;99330.58;1755809;80;20997;-73
2022/09/25 10:08:46;;;;;;;1.67;1.32;;;;;;;18.32;49.79;99337.05;1748100;80;20993;-73
2022/09/25 10:11:19;;;;;;;3.80;1.75;;;;;;;18.04;50.18;99338.17;1744998;80;21082;-72
2022/09/25 10:13:51;;;;;;;2.87;1.82;;;;;;;17.65;50.84;99331.94;1742840;80;22287;-72
2022/09/25 10:16:35;;;;;;;2.83;1.87;;;;;;;17.32;50.54;99334.45;1761922;80;24282;-72
2022/09/25 10:19:18;;;;;;;3.02;1.40;;;;;;;16.96;51.38;99325.38;1748641;80;20963;-72
2022/09/25 10:22:06;;;;;;;2.83;1.52;;;;;;;16.71;52.55;99327.64;1745556;80;21541;-72
2022/09/25 10:25:05;;;;;;;4.03;1.32;;;;;;;16.74;53.47;99315.83;1687872;83;21021;-72
2022/09/25 10:27:48;;;;;;;2.17;1.65;;;;;;;16.72;52.49;99315.97;1728377;80;20959;-79
2022/09/25 10:30:20;;;;;;;1.65;1.50;;;;;;;16.68;52.70;99318.66;1756785;80;21145;-73
2022/09/25 10:32:59;;;;;;;4.17;2.00;;;;;;;17.03;54.31;99310.87;1742922;81;21612;-72
2022/09/25 10:35:40;;;;;;;6.42;1.80;;;;;;;17.56;52.75;99305.55;1748628;80;20903;-73
2022/09/25 10:38:21;;;;;;;3.25;1.57;;;;;;;17.88;49.94;99301.42;1756305;81;21058;-72
2022/09/25 10:41:02;;;;;;;1.87;1.40;;;;;;;17.85;50.75;99299.97;1747135;81;21058;-73
2022/09/25 10:43:29;;;;;;;5.95;1.90;;;;;;;17.72;49.71;99297.95;1755006;80;21561;-72
2022/09/25 10:46:13;;;;;;;8.13;1.98;;;;;;;17.67;49.15;99289.94;1722892;81;20950;-73
2022/09/25 10:51:26;;;;;;;4.12;1.70;;;;;;;18.08;48.50;99293.80;1730119;81;21054;-73
2022/09/25 10:54:12;;;;;;;2.87;2.33;;;;;;;17.97;48.27;99282.50;1733299;81;21148;-73
2022/09/25 10:56:40;;;;;;;6.25;1.82;;;;;;;17.81;50.32;99296.55;1715441;81;21232;-71
2022/09/25 10:59:18;;;;;;;2.12;1.50;;;;;;;17.93;50.77;99298.89;1702209;83;21698;-72
2022/09/25 11:01:47;;;;;;;4.95;1.65;;;;;;;18.19;50.14;99287.83;1740574;81;21059;-72
2022/09/25 11:04:21;;;;;;;2.85;1.70;;;;;;;18.54;49.83;99283.38;1708831;82;21145;-73
2022/09/25 11:06:51;;;;;;;2.87;1.40;;;;;;;18.65;49.14;99278.00;1700942;82;21126;-72
2022/09/25 11:09:22;;;;;;;1.85;1.37;;;;;;;18.54;48.71;99281.18;1712893;82;39254;-73
2022/09/25 11:11:49;;;;;;;1.72;1.40;;;;;;;18.30;49.33;99267.95;1679964;84;21132;-72
2022/09/25 11:14:31;;;;;;;2.20;1.65;;;;;;;18.00;49.51;99267.08;1708052;82;20980;-72
2022/09/25 11:17:04;;;;;;;3.00;1.62;;;;;;;17.67;50.47;99276.05;1707913;82;21014;-72
2022/09/25 11:19:37;;;;;;;2.62;1.87;;;;;;;17.27;51.16;99274.52;1748787;80;21060;-73
2022/09/25 11:22:24;;;;;;;1.87;1.52;;;;;;;16.91;51.81;99273.57;1747574;80;21193;-74
2022/09/25 11:25:11;;;;;;;2.98;2.15;;;;;;;16.65;53.16;99274.23;1749950;80;20968;-74
2022/09/25 11:27:49;;;;;;;2.98;1.90;;;;;;;16.42;54.67;99268.54;1747928;80;21469;-74
2022/09/25 11:30:18;;;;;;;9.33;3.90;;;;;;;16.27;55.36;99272.14;1762283;80;21001;-73
2022/09/25 11:33:22;;;;;;;4.05;2.90;;;;;;;16.18;54.80;99266.80;1760844;80;21514;-73
2022/09/25 11:36:17;;;;;;;5.85;2.50;;;;;;;16.16;55.56;99269.16;1727531;80;21184;-73
2022/09/25 11:41:52;;;;;;;5.17;2.15;;;;;;;16.18;54.81;99259.88;1750617;80;21092;-74
2022/09/25 11:44:43;;;;;;;4.95;1.75;;;;;;;16.26;54.96;99260.27;1752363;80;20981;-74
2022/09/25 11:47:29;;;;;;;3.02;2.22;;;;;;;16.43;54.77;99259.87;1745394;80;21029;-70
2022/09/25 11:49:57;;;;;;;3.77;2.10;;;;;;;16.57;54.32;99262.16;1742485;81;21871;-74
2022/09/25 11:52:41;;;;;;;5.40;2.50;;;;;;;16.84;52.77;99258.98;1758800;80;21058;-73
2022/09/25 11:55:28;;;;;;;3.05;1.90;;;;;;;16.92;52.37;99255.77;1746086;80;21549;-73
2022/09/25 11:58:08;;;;;;;2.55;2.20;;;;;;;16.90;53.19;99254.75;1745222;80;21061;-73
2022/09/25 12:01:04;;;;;;;2.30;1.90;;;;;;;16.86;53.36;99251.69;1757035;80;20856;-72
2022/09/25 12:03:54;;;;;;;2.35;1.82;;;;;;;16.78;54.10;99259.05;1726937;81;20972;-73
2022/09/25 12:06:51;;;;;;;6.72;2.58;;;;;;;16.72;54.10;99258.56;1716044;81;21013;-72
2022/09/25 12:10:11;;;;;;;2.92;2.20;;;;;;;17.01;54.74;99253.00;1707731;82;21452;-71
2022/09/25 12:13:00;;;;;;;3.58;2.27;;;;;;;17.27;53.76;99249.55;1688871;81;20907;-71
2022/09/25 12:15:51;;;;;;;4.97;2.37;;;;;;;17.34;52.99;99251.63;1719553;82;20930;-73
2022/09/25 12:18:54;;;;;;;3.72;2.25;;;;;;;17.20;52.46;99259.12;1689765;81;21617;-73